Airfield :







YOU CAN JOIN US ON...

 
LOGIN :

Register | Disclaimer

   EN    FR    IT 

 









Legend :    VFR   Marginal VFR   IFR   Intensive IFR   Very Intensive IFR
Visi :
Ceiling :
>= 8 km
>= 3000ft
5 to 8 km
1000 to 3000 ft
1500m to 5 km
500 to 1000 ft
800 to 1500m
200 to 500 ft
< 800m
< 200 ft
Symbols :   Thunderstorms  Fog  Heavy snow  Heavy precipitations  Wind > 20 kt






- Airport Elevation : 141 ft
- IATA code : YQI


CYQI - Yarmouth

CURRENT METAR :
  • 071500Z 25006KT 15SM FEW015 FEW190 BKN250 17/14 A2996 RMK SC1AC1CI5 SC TR SLP148 DENSITY ALT 400FT

EXPIRED METARs :
  • 071400Z 26004KT 210V330 15SM FEW003 BKN250 17/15 A2995 RMK SF1CI5 SF TR SLP145 DENSITY ALT 400FT
  • 071300Z VRB02KT 15SM FEW003 BKN250 15/15 A2995 RMK SF1CI5 SF TR SLP145 DENSITY ALT 200FT

TAF TAF CYQI
Valid from the 07 at 12:00 until the 08 at 00:00 UTC


071140Z 0712/0724 26005KT 6SM BR FEW250
TEMPO 0712/0713 1/2SM -DZ FG BKN003
FM071300 25008KT P6SM FEW006 SCT160
TEMPO 0713/0715 3SM BR BKN006
FM072000 20010KT P6SM SCT006 BKN080
FM072300 21010KT 2SM BR OVC006 RMK NXT FCST BY 071800Z
CZQM FIR / North America



MET'MAP, your aeronautical weather chart ! - Copyright ORBIFLY December 2007 - Disclaimer

ORBIFLY MET'MAP TEAM :

Programming & Development : Alexandra Zaïnal
Original concept : Baudouin d'Aumeries
Technical & hardware support : Manuel Goepfert
Assistance : Marc-Olivier Méhu




SOURCES & CREDITS :

   NOAA